Summer Point, Vermont
Current Conditions -  °F | °C
As of 11:55 AM on Sunday 23 Nov 2014 (Local Time) from K6B0 Reporting Station
Overcast Overcast  
Wind Chill:   Ceiling: 2300
Heat Index:   Visibility: 10mi
Dew Point:   Wind: 6mph
Humidity: 74%   Direction: 170°S
Pressure: 30.05"   Gusts: NA
Location:  44.0804°N, 73.3324°W
Report Text: K6B0 231655Z AUTO 17005KT 10SM OVC023 08/04 A3005 RMK AO2 T00810038
Loading
Personal Weather Stations






























Interactive Weather Map New forecast layout! Learn more

10-Day Weather Forecast

Advertisements
Track Severe Weather on mobile